TimeCDT,TemperatureF,Dew PointF,Humidity,Sea Level PressureIn,VisibilityMPH,Wind Direction,Wind SpeedMPH,Gust SpeedMPH,PrecipitationIn,Events,Conditions,WindDirDegrees,DateUTC
12:53 AM,60.1,57.0,90,29.90,10.0,NE,10.4,-,N/A,,Overcast,50,2013-10-04 05:53:00
1:03 AM,60.1,57.0,90,29.91,10.0,NE,10.4,-,N/A,,Overcast,40,2013-10-04 06:03:00
1:53 AM,60.1,57.0,90,29.91,10.0,NNE,9.2,-,N/A,,Overcast,20,2013-10-04 06:53:00
2:53 AM,57.9,55.9,93,29.94,9.0,North,10.4,-,N/A,,Overcast,10,2013-10-04 07:53:00
3:53 AM,57.0,55.0,93,29.94,7.0,North,8.1,-,0.00,,Overcast,10,2013-10-04 08:53:00
4:24 AM,55.9,55.0,97,29.94,2.5,NNE,10.4,-,0.00,Rain,Light Rain,20,2013-10-04 09:24:00
4:28 AM,55.9,55.0,97,29.95,3.0,NNE,10.4,-,0.00,Rain-Thunderstorm,Light Rain,20,2013-10-04 09:28:00
4:53 AM,55.9,55.0,97,29.97,3.0,North,9.2,-,0.05,Rain-Thunderstorm,Heavy Rain,350,2013-10-04 09:53:00
5:01 AM,55.0,55.0,100,29.98,1.8,ENE,4.6,-,0.06,Rain-Thunderstorm,Heavy Thunderstorms and Rain,60,2013-10-04 10:01:00
5:11 AM,55.0,55.0,100,29.98,2.0,North,12.7,-,0.21,Rain-Thunderstorm,Heavy Thunderstorms and Rain,360,2013-10-04 10:11:00
5:19 AM,55.0,55.0,100,29.96,4.0,NNE,12.7,-,0.23,Rain-Thunderstorm,Rain,20,2013-10-04 10:19:00
5:27 AM,55.0,55.0,100,29.98,8.0,NNE,9.2,-,0.23,Rain-Thunderstorm,Light Thunderstorms and Rain,30,2013-10-04 10:27:00
5:43 AM,55.9,55.0,97,29.98,10.0,NNE,8.1,-,0.23,Thunderstorm,Overcast,20,2013-10-04 10:43:00
5:53 AM,55.9,55.0,97,29.99,10.0,NNE,11.5,-,0.23,,Overcast,30,2013-10-04 10:53:00
6:24 AM,55.9,55.0,97,29.98,10.0,NNE,11.5,-,N/A,Thunderstorm,Overcast,30,2013-10-04 11:24:00
6:39 AM,55.9,55.0,97,29.97,10.0,NNE,12.7,-,N/A,,Overcast,20,2013-10-04 11:39:00
6:53 AM,55.9,55.0,97,29.99,10.0,NNE,11.5,-,N/A,,Overcast,20,2013-10-04 11:53:00
7:53 AM,55.9,54.0,93,30.01,10.0,NNE,9.2,-,N/A,,Overcast,30,2013-10-04 12:53:00
8:53 AM,55.9,54.0,93,30.01,10.0,NNE,12.7,-,N/A,,Overcast,20,2013-10-04 13:53:00
9:53 AM,55.9,55.0,97,30.02,8.0,NNE,10.4,-,N/A,,Overcast,30,2013-10-04 14:53:00
10:40 AM,57.0,55.0,93,30.04,6.0,Calm,Calm,-,N/A,,Overcast,0,2013-10-04 15:40:00
10:53 AM,57.0,55.9,96,30.01,4.0,NE,17.3,-,0.00,Rain,Light Rain,40,2013-10-04 15:53:00
11:08 AM,57.0,55.9,96,29.97,3.0,NNE,13.8,-,0.00,Rain,Light Rain,30,2013-10-04 16:08:00
11:53 AM,57.9,57.0,97,29.99,5.0,NNE,13.8,21.9,0.00,,Overcast,20,2013-10-04 16:53:00
12:39 PM,59.0,57.0,93,30.02,6.0,North,9.2,-,0.01,Rain,Light Rain,10,2013-10-04 17:39:00
12:53 PM,59.0,57.9,96,30.01,7.0,NNE,15.0,-,0.01,Rain,Light Rain,30,2013-10-04 17:53:00
1:53 PM,59.0,57.0,93,30.06,7.0,NE,10.4,-,0.01,,Overcast,50,2013-10-04 18:53:00
2:53 PM,59.0,57.9,96,30.05,3.0,NNE,17.3,21.9,0.00,Rain,Light Rain,30,2013-10-04 19:53:00
3:23 PM,59.0,57.9,96,30.03,5.0,NNE,12.7,-,0.01,Rain,Light Rain,30,2013-10-04 20:23:00
3:53 PM,59.0,57.0,93,30.05,3.0,NE,10.4,-,0.01,Rain,Light Rain,40,2013-10-04 20:53:00
4:53 PM,59.0,57.9,96,30.04,4.0,NE,13.8,-,0.00,,Overcast,40,2013-10-04 21:53:00
5:07 PM,59.0,57.9,96,30.03,4.0,NE,12.7,-,N/A,,Overcast,40,2013-10-04 22:07:00
5:42 PM,59.0,57.0,93,30.03,9.0,NE,13.8,-,N/A,,Overcast,40,2013-10-04 22:42:00
5:53 PM,59.0,57.0,93,30.02,9.0,NE,16.1,-,N/A,,Overcast,40,2013-10-04 22:53:00
6:53 PM,59.0,57.0,93,30.03,10.0,NE,11.5,-,N/A,,Overcast,50,2013-10-04 23:53:00
7:53 PM,59.0,57.9,96,30.04,10.0,NE,11.5,-,N/A,,Overcast,50,2013-10-05 00:53:00
8:49 PM,59.0,57.2,94,30.04,9.0,ENE,12.7,-,N/A,,Overcast,60,2013-10-05 01:49:00
8:53 PM,59.0,57.9,96,30.04,9.0,ENE,11.5,-,N/A,,Overcast,60,2013-10-05 01:53:00
9:53 PM,59.0,57.9,96,30.04,6.0,ENE,12.7,-,N/A,,Overcast,60,2013-10-05 02:53:00
10:53 PM,59.0,59.0,100,30.05,4.0,NNE,11.5,-,N/A,,Overcast,30,2013-10-05 03:53:00
11:53 PM,59.0,59.0,100,30.03,5.0,NE,13.8,-,0.00,,Overcast,50,2013-10-05 04:53:00